createdAt,value
2018-01-19T00:00:25.776Z,0
2018-01-19T00:01:26.434Z,0
2018-01-19T00:02:27.092Z,0
2018-01-19T00:03:27.749Z,0
2018-01-19T00:04:28.408Z,0
2018-01-19T00:05:29.066Z,0
2018-01-19T00:06:29.723Z,0
2018-01-19T00:07:30.382Z,0
2018-01-19T00:08:31.038Z,0
2018-01-19T00:09:31.696Z,0
2018-01-19T00:10:32.353Z,0
2018-01-19T00:11:33.011Z,0
2018-01-19T00:12:33.670Z,0
2018-01-19T00:13:34.326Z,0
2018-01-19T00:14:34.984Z,0
2018-01-19T00:15:35.646Z,0
2018-01-19T00:16:36.301Z,0
2018-01-19T00:17:36.959Z,0
2018-01-19T00:18:37.618Z,0
2018-01-19T00:19:38.275Z,0
2018-01-19T00:20:38.934Z,0
2018-01-19T00:21:39.592Z,0
2018-01-19T00:22:40.249Z,0
2018-01-19T00:23:40.909Z,0
2018-01-19T00:24:41.567Z,0
2018-01-19T00:25:42.226Z,0
2018-01-19T00:26:42.883Z,0
2018-01-19T00:27:43.546Z,0
2018-01-19T00:28:44.200Z,0
2018-01-19T00:29:44.859Z,0
2018-01-19T00:30:45.518Z,0
2018-01-19T00:31:46.176Z,0
2018-01-19T00:32:46.834Z,0
2018-01-19T00:33:47.495Z,0
2018-01-19T00:34:48.152Z,0
2018-01-19T00:35:48.860Z,0
2018-01-19T00:36:49.518Z,0
2018-01-19T00:37:50.175Z,0
2018-01-19T00:38:50.832Z,0
2018-01-19T00:39:51.490Z,0
2018-01-19T00:40:52.149Z,0
2018-01-19T00:41:52.808Z,0
2018-01-19T00:43:39.363Z,0
2018-01-19T00:44:40.022Z,0
2018-01-19T00:45:40.716Z,0
2018-01-19T00:46:41.373Z,0
2018-01-19T00:47:42.032Z,0
2018-01-19T00:48:42.690Z,0
2018-01-19T00:49:43.352Z,0
2018-01-19T00:50:44.008Z,0
2018-01-19T00:51:44.666Z,0
2018-01-19T00:52:45.325Z,0
2018-01-19T00:53:45.983Z,0
2018-01-19T00:54:46.641Z,0
2018-01-19T00:55:47.300Z,0
2018-01-19T00:56:47.959Z,0
2018-01-19T00:57:48.618Z,0
2018-01-19T00:58:49.277Z,0
2018-01-19T00:59:49.934Z,0
2018-01-19T01:00:50.592Z,0
2018-01-19T01:01:51.251Z,0
2018-01-19T01:02:51.910Z,0
2018-01-19T01:03:52.568Z,0
2018-01-19T01:04:53.226Z,0
2018-01-19T01:05:53.885Z,0
2018-01-19T01:06:54.543Z,0
2018-01-19T01:07:55.199Z,0
2018-01-19T01:08:55.856Z,0
2018-01-19T01:09:56.513Z,0
2018-01-19T01:10:57.171Z,0
2018-01-19T01:11:57.829Z,0
2018-01-19T01:12:58.487Z,0
2018-01-19T01:13:59.145Z,0
2018-01-19T01:14:59.804Z,0
2018-01-19T01:16:00.462Z,0
2018-01-19T01:17:01.121Z,0
2018-01-19T01:18:01.779Z,0
2018-01-19T01:19:02.438Z,0
2018-01-19T01:20:03.097Z,0
2018-01-19T01:21:03.757Z,0
2018-01-19T01:22:04.415Z,0
2018-01-19T01:23:05.074Z,0
2018-01-19T01:24:05.732Z,0
2018-01-19T01:25:06.392Z,0
2018-01-19T01:26:07.049Z,0
2018-01-19T01:27:07.707Z,0
2018-01-19T01:28:08.372Z,0
2018-01-19T01:29:09.024Z,0
2018-01-19T01:30:09.683Z,0
2018-01-19T01:31:10.342Z,0
2018-01-19T01:32:11.000Z,0
2018-01-19T01:33:11.660Z,0
2018-01-19T01:34:12.317Z,0
2018-01-19T01:35:12.976Z,0
2018-01-19T01:36:13.637Z,0
2018-01-19T01:37:14.295Z,0
2018-01-19T01:38:14.952Z,0
2018-01-19T01:39:15.610Z,0
2018-01-19T01:40:16.275Z,0
2018-01-19T01:41:16.929Z,0
2018-01-19T01:42:17.588Z,0
2018-01-19T01:43:18.247Z,0
2018-01-19T01:44:18.906Z,0
2018-01-19T01:45:19.564Z,0
2018-01-19T01:46:20.222Z,0
2018-01-19T01:47:20.882Z,0
2018-01-19T01:48:21.541Z,0
2018-01-19T01:49:22.199Z,0
2018-01-19T01:50:22.858Z,0
2018-01-19T01:51:23.517Z,0
2018-01-19T01:52:24.177Z,0
2018-01-19T01:53:24.835Z,0
2018-01-19T01:54:25.495Z,0
2018-01-19T01:55:26.154Z,0
2018-01-19T01:56:26.813Z,0
2018-01-19T01:57:27.471Z,0
2018-01-19T01:58:28.131Z,0
2018-01-19T01:59:28.790Z,0
2018-01-19T02:00:29.448Z,0
2018-01-19T02:01:30.107Z,0
2018-01-19T02:02:30.764Z,0
2018-01-19T02:03:31.423Z,0
2018-01-19T02:04:32.081Z,0
2018-01-19T02:05:32.740Z,0
2018-01-19T02:06:33.399Z,0
2018-01-19T02:07:34.058Z,0
2018-01-19T02:08:34.716Z,0
2018-01-19T02:09:35.376Z,0
2018-01-19T02:10:36.073Z,0
2018-01-19T02:11:36.731Z,0
2018-01-19T02:12:37.390Z,0
2018-01-19T02:13:38.049Z,0
2018-01-19T02:14:38.710Z,0
2018-01-19T02:15:39.367Z,0
2018-01-19T02:16:40.028Z,0
2018-01-19T02:17:40.686Z,0
2018-01-19T02:18:41.345Z,0
2018-01-19T02:19:42.005Z,0
2018-01-19T02:20:42.665Z,0
2018-01-19T02:21:43.323Z,0
2018-01-19T02:22:43.982Z,0
2018-01-19T02:23:44.680Z,0
2018-01-19T02:24:45.374Z,0
2018-01-19T02:25:46.028Z,0
2018-01-19T02:26:46.684Z,0
2018-01-19T02:27:47.342Z,0
2018-01-19T02:28:47.999Z,0
2018-01-19T02:29:48.656Z,0
2018-01-19T02:30:49.313Z,0
2018-01-19T02:31:49.971Z,0
2018-01-19T02:32:50.665Z,0
2018-01-19T02:33:51.324Z,0
2018-01-19T02:34:51.983Z,0
2018-01-19T02:35:52.641Z,0
2018-01-19T02:36:53.299Z,0
2018-01-19T02:37:53.991Z,0
2018-01-19T02:38:54.649Z,0
2018-01-19T02:39:55.306Z,0
2018-01-19T02:40:55.964Z,0
2018-01-19T02:41:56.623Z,0
2018-01-19T02:42:57.281Z,0
2018-01-19T02:43:57.939Z,0
2018-01-19T02:44:58.595Z,0
2018-01-19T02:45:59.253Z,0
2018-01-19T02:46:59.912Z,0
2018-01-19T02:48:00.570Z,0
2018-01-19T02:49:01.229Z,0
2018-01-19T02:50:01.887Z,0
2018-01-19T02:51:02.544Z,0
2018-01-19T02:52:03.202Z,0
2018-01-19T02:53:03.861Z,0
2018-01-19T02:54:04.519Z,0
2018-01-19T02:55:05.176Z,0
2018-01-19T02:56:05.869Z,0
2018-01-19T02:57:06.527Z,0
2018-01-19T02:58:07.218Z,0
2018-01-19T02:59:07.874Z,0
2018-01-19T03:00:08.531Z,0
2018-01-19T03:01:09.188Z,0
2018-01-19T03:02:09.846Z,0
2018-01-19T03:03:10.505Z,0
2018-01-19T03:04:11.162Z,0
2018-01-19T03:05:11.822Z,0
2018-01-19T03:06:12.479Z,0
2018-01-19T03:07:13.138Z,0
2018-01-19T03:08:13.845Z,0
2018-01-19T03:09:14.501Z,0
2018-01-19T03:10:15.159Z,0
2018-01-19T03:11:15.815Z,0
2018-01-19T03:12:16.472Z,0
2018-01-19T03:13:17.129Z,0
2018-01-19T03:14:17.784Z,0
2018-01-19T03:15:18.443Z,0
2018-01-19T03:16:19.099Z,0
2018-01-19T03:17:19.757Z,0
2018-01-19T03:18:20.415Z,0
2018-01-19T03:19:21.074Z,0
2018-01-19T03:20:21.732Z,0
2018-01-19T03:21:22.390Z,0
2018-01-19T03:22:23.047Z,0
2018-01-19T03:23:23.755Z,0
2018-01-19T03:24:24.411Z,0
2018-01-19T03:25:25.069Z,0
2018-01-19T03:26:25.726Z,0
2018-01-19T03:27:26.385Z,0
2018-01-19T03:28:27.077Z,0
2018-01-19T03:29:27.738Z,0
2018-01-19T03:30:28.426Z,0
2018-01-19T03:31:29.084Z,0
2018-01-19T03:32:29.741Z,0
2018-01-19T03:33:30.398Z,0
2018-01-19T03:34:31.058Z,0
2018-01-19T03:35:31.715Z,0
2018-01-19T03:36:32.372Z,0
2018-01-19T03:37:33.030Z,0
2018-01-19T03:38:33.687Z,0
2018-01-19T03:39:34.345Z,0
2018-01-19T03:40:35.005Z,0
2018-01-19T03:41:35.662Z,0
2018-01-19T03:42:36.320Z,0
2018-01-19T03:43:36.979Z,0
2018-01-19T03:44:37.638Z,0
2018-01-19T03:45:38.331Z,0
2018-01-19T03:46:38.989Z,0
2018-01-19T03:47:39.648Z,0
2018-01-19T03:48:40.307Z,0
2018-01-19T03:49:40.965Z,0
2018-01-19T03:50:41.624Z,0
2018-01-19T03:51:42.284Z,0
2018-01-19T03:52:42.943Z,0
2018-01-19T03:53:43.652Z,0
2018-01-19T03:54:44.310Z,0
2018-01-19T03:55:44.965Z,0
2018-01-19T03:56:45.623Z,0
2018-01-19T03:57:46.278Z,0
2018-01-19T03:58:46.937Z,0
2018-01-19T03:59:47.593Z,0
2018-01-19T04:00:48.251Z,0
2018-01-19T04:01:48.912Z,0
2018-01-19T04:02:49.566Z,0
2018-01-19T04:03:50.225Z,0
2018-01-19T04:04:50.882Z,0
2018-01-19T04:05:51.542Z,0
2018-01-19T04:06:52.198Z,0
2018-01-19T04:07:52.857Z,0
2018-01-19T04:08:53.515Z,0
2018-01-19T04:09:54.177Z,0
2018-01-19T04:10:54.836Z,0
2018-01-19T04:11:55.490Z,0
2018-01-19T04:12:56.186Z,0
2018-01-19T04:13:56.843Z,0
2018-01-19T04:14:57.503Z,0
2018-01-19T04:15:58.162Z,0
2018-01-19T04:16:58.821Z,0
2018-01-19T04:17:59.481Z,0
2018-01-19T04:19:00.140Z,0
2018-01-19T04:20:00.800Z,0
2018-01-19T04:21:01.494Z,0
2018-01-19T04:22:02.153Z,0
2018-01-19T04:23:02.843Z,0
2018-01-19T04:24:03.470Z,0
2018-01-19T04:25:04.128Z,0
2018-01-19T04:26:04.786Z,0
2018-01-19T04:27:05.444Z,0
2018-01-19T04:28:06.104Z,0
2018-01-19T04:29:06.763Z,0
2018-01-19T04:30:07.421Z,0
2018-01-19T04:31:08.079Z,0
2018-01-19T04:32:08.737Z,0
2018-01-19T04:33:09.396Z,0
2018-01-19T04:34:10.054Z,0
2018-01-19T04:35:10.711Z,0
2018-01-19T04:36:11.370Z,0
2018-01-19T04:37:12.026Z,0
2018-01-19T04:38:12.685Z,0
2018-01-19T04:39:13.344Z,0
2018-01-19T04:40:14.001Z,0
2018-01-19T04:41:14.658Z,0
2018-01-19T04:42:15.316Z,0
2018-01-19T04:43:15.975Z,0
2018-01-19T04:44:16.633Z,0
2018-01-19T04:45:17.291Z,0
2018-01-19T04:46:17.949Z,0
2018-01-19T04:47:18.608Z,0
2018-01-19T04:48:19.265Z,0
2018-01-19T04:49:19.924Z,0
2018-01-19T04:50:20.580Z,0
2018-01-19T04:51:21.238Z,0
2018-01-19T04:52:21.897Z,0
2018-01-19T04:53:22.554Z,0
2018-01-19T04:54:23.214Z,0
2018-01-19T04:55:23.870Z,0
2018-01-19T04:56:24.530Z,0
2018-01-19T04:57:25.186Z,0
2018-01-19T04:58:25.843Z,0
2018-01-19T04:59:26.552Z,0
2018-01-19T05:00:27.209Z,0
2018-01-19T05:01:27.867Z,0
2018-01-19T05:02:28.523Z,0
2018-01-19T05:03:29.181Z,0
2018-01-19T05:04:29.836Z,0
2018-01-19T05:05:30.494Z,0
2018-01-19T05:06:31.152Z,0
2018-01-19T05:07:31.810Z,0
2018-01-19T05:08:32.467Z,0
2018-01-19T05:09:33.125Z,0
2018-01-19T05:10:33.819Z,0
2018-01-19T05:11:34.478Z,0
2018-01-19T05:12:35.135Z,0
2018-01-19T05:13:35.800Z,0
2018-01-19T05:14:36.454Z,0
2018-01-19T05:15:37.112Z,0
2018-01-19T05:16:37.771Z,0
2018-01-19T05:17:38.430Z,0
2018-01-19T05:18:39.088Z,0
2018-01-19T05:19:39.746Z,0
2018-01-19T05:20:40.405Z,0
2018-01-19T05:21:41.090Z,0
2018-01-19T05:22:41.719Z,0
2018-01-19T05:23:42.377Z,0
2018-01-19T05:24:43.035Z,0
2018-01-19T05:25:43.695Z,0
2018-01-19T05:26:44.387Z,0
2018-01-19T05:27:45.046Z,0
2018-01-19T05:28:45.704Z,0
2018-01-19T05:29:46.362Z,0
2018-01-19T05:30:47.038Z,0
2018-01-19T05:31:47.680Z,0
2018-01-19T05:32:48.338Z,0
2018-01-19T05:33:49.034Z,0
2018-01-19T05:34:49.694Z,0
2018-01-19T05:35:50.354Z,0
2018-01-19T05:36:51.012Z,0
2018-01-19T05:37:51.670Z,0
2018-01-19T05:38:52.328Z,0
2018-01-19T05:39:52.987Z,0
2018-01-19T05:40:53.646Z,0
2018-01-19T05:41:54.305Z,0
2018-01-19T05:42:54.964Z,0
2018-01-19T05:43:55.621Z,0
2018-01-19T05:44:56.280Z,0
2018-01-19T05:45:56.937Z,0
2018-01-19T05:46:57.599Z,0
2018-01-19T05:47:58.252Z,0
2018-01-19T05:48:58.911Z,0
2018-01-19T05:49:59.569Z,0
2018-01-19T05:51:00.231Z,0
2018-01-19T05:52:00.886Z,0
2018-01-19T05:53:01.580Z,0
2018-01-19T05:54:02.239Z,0
2018-01-19T05:55:02.948Z,0
2018-01-19T05:56:03.605Z,0
2018-01-19T05:57:04.262Z,0
2018-01-19T05:58:04.921Z,0
2018-01-19T05:59:05.576Z,0
2018-01-19T06:00:06.233Z,0
2018-01-19T06:01:06.892Z,0
2018-01-19T06:02:07.550Z,0
2018-01-19T06:03:08.215Z,0
2018-01-19T06:04:08.867Z,0
2018-01-19T06:05:09.524Z,0
2018-01-19T06:06:10.182Z,0
2018-01-19T06:07:10.840Z,0
2018-01-19T06:08:11.500Z,0
2018-01-19T06:09:12.157Z,0
2018-01-19T06:10:12.817Z,0
2018-01-19T06:11:13.477Z,0
2018-01-19T06:12:14.153Z,0
2018-01-19T06:13:14.792Z,0
2018-01-19T06:14:15.449Z,0
2018-01-19T06:15:16.106Z,0
2018-01-19T06:16:16.768Z,0
2018-01-19T06:17:17.423Z,0
2018-01-19T06:18:18.081Z,0
2018-01-19T06:19:18.740Z,0
2018-01-19T06:20:19.400Z,0
2018-01-19T06:21:20.056Z,0
2018-01-19T06:22:20.714Z,0
2018-01-19T06:23:21.372Z,0
2018-01-19T06:24:22.030Z,0
2018-01-19T06:25:22.689Z,0
2018-01-19T06:26:23.346Z,0
2018-01-19T06:27:24.005Z,0
2018-01-19T06:28:24.663Z,0
2018-01-19T06:29:25.322Z,0
2018-01-19T06:30:26.016Z,0
2018-01-19T06:31:26.673Z,0
2018-01-19T06:32:27.329Z,0
2018-01-19T06:33:27.985Z,0
2018-01-19T06:34:28.644Z,0
2018-01-19T06:35:29.350Z,0
2018-01-19T06:36:30.010Z,0
2018-01-19T06:37:30.668Z,0
2018-01-19T06:38:31.326Z,0
2018-01-19T06:39:32.021Z,0
2018-01-19T06:40:32.728Z,0
2018-01-19T06:41:33.387Z,0
2018-01-19T06:42:34.046Z,0
2018-01-19T06:43:34.706Z,0
2018-01-19T06:44:35.368Z,0
2018-01-19T06:45:36.024Z,0
2018-01-19T06:46:36.682Z,0
2018-01-19T06:47:37.341Z,0
2018-01-19T06:48:37.999Z,0
2018-01-19T06:49:38.657Z,0
2018-01-19T06:50:39.316Z,0
2018-01-19T06:51:40.008Z,0
2018-01-19T06:52:40.633Z,0
2018-01-19T06:53:41.294Z,0
2018-01-19T06:54:41.954Z,0
2018-01-19T06:55:42.661Z,0
2018-01-19T06:56:43.315Z,0
2018-01-19T06:57:43.972Z,0
2018-01-19T06:58:44.629Z,0
2018-01-19T06:59:45.287Z,0
2018-01-19T07:00:45.982Z,0
2018-01-19T07:01:46.646Z,0
2018-01-19T07:02:47.299Z,0
2018-01-19T07:03:47.958Z,0
2018-01-19T07:04:48.619Z,0
2018-01-19T07:05:49.313Z,0
2018-01-19T07:06:49.976Z,0
2018-01-19T07:07:50.667Z,0
2018-01-19T07:08:51.324Z,0
2018-01-19T07:09:51.983Z,0
2018-01-19T07:10:52.690Z,0
2018-01-19T07:11:53.350Z,0
2018-01-19T07:12:54.010Z,0
2018-01-19T07:13:54.705Z,0
2018-01-19T07:14:55.363Z,0
2018-01-19T07:15:56.019Z,0
2018-01-19T07:16:56.677Z,0
2018-01-19T07:17:57.336Z,0
2018-01-19T07:18:57.995Z,0
2018-01-19T07:19:58.688Z,0
2018-01-19T07:20:59.348Z,0
2018-01-19T07:22:00.021Z,0
2018-01-19T07:23:00.700Z,0
2018-01-19T07:24:01.358Z,0
2018-01-19T07:25:02.018Z,0
2018-01-19T07:26:02.677Z,0
2018-01-19T07:27:03.336Z,0
2018-01-19T07:28:03.994Z,0
2018-01-19T07:29:04.654Z,0
2018-01-19T07:30:05.313Z,0
2018-01-19T07:31:05.971Z,0
2018-01-19T07:32:06.629Z,0
2018-01-19T07:33:07.288Z,0
2018-01-19T07:34:07.948Z,0
2018-01-19T07:35:08.607Z,0
2018-01-19T07:36:09.266Z,0
2018-01-19T07:37:09.927Z,0
2018-01-19T07:38:10.587Z,0
2018-01-19T07:39:11.246Z,0
2018-01-19T07:40:11.905Z,0
2018-01-19T07:41:12.565Z,0
2018-01-19T07:42:13.226Z,5
2018-01-19T07:43:13.891Z,5
2018-01-19T07:44:14.584Z,5
2018-01-19T07:45:15.247Z,5
2018-01-19T07:46:15.908Z,5
2018-01-19T07:47:16.570Z,5
2018-01-19T07:48:17.230Z,5
2018-01-19T07:49:17.890Z,5
2018-01-19T07:50:18.549Z,5
2018-01-19T07:51:19.208Z,5
2018-01-19T07:52:19.870Z,5
2018-01-19T07:53:20.532Z,5
2018-01-19T07:54:21.193Z,5
2018-01-19T07:55:21.854Z,5
2018-01-19T07:56:22.513Z,5
2018-01-19T07:57:23.208Z,5
2018-01-19T07:58:23.868Z,5
2018-01-19T07:59:24.529Z,5
2018-01-19T08:00:25.224Z,5
2018-01-19T08:01:25.895Z,5
2018-01-19T08:02:26.578Z,5
2018-01-19T08:03:27.238Z,5
2018-01-19T08:04:27.898Z,5
2018-01-19T08:05:28.558Z,5
2018-01-19T08:06:29.218Z,5
2018-01-19T08:07:29.881Z,5
2018-01-19T08:08:30.536Z,5
2018-01-19T08:09:31.197Z,5
2018-01-19T08:10:31.858Z,5
2018-01-19T08:11:32.520Z,5
2018-01-19T08:12:33.182Z,5
2018-01-19T08:13:33.845Z,11
2018-01-19T08:14:34.506Z,11
2018-01-19T08:15:35.167Z,11
2018-01-19T08:16:35.829Z,11
2018-01-19T08:17:36.491Z,11
2018-01-19T08:18:37.152Z,11
2018-01-19T08:19:37.814Z,11
2018-01-19T08:20:38.473Z,11
2018-01-19T08:21:39.185Z,11
2018-01-19T08:22:39.846Z,11
2018-01-19T08:23:40.509Z,11
2018-01-19T08:24:41.169Z,11
2018-01-19T08:25:41.831Z,11
2018-01-19T08:26:42.492Z,16
2018-01-19T08:27:43.154Z,16
2018-01-19T08:28:43.815Z,16
2018-01-19T08:29:44.477Z,16
2018-01-19T08:30:45.138Z,16
2018-01-19T08:31:45.799Z,16
2018-01-19T08:32:46.460Z,16
2018-01-19T08:33:47.158Z,16
2018-01-19T08:34:47.819Z,11
2018-01-19T08:35:48.481Z,16
2018-01-19T08:36:49.149Z,16
2018-01-19T08:37:49.806Z,16
2018-01-19T08:38:50.467Z,16
2018-01-19T08:39:51.128Z,16
2018-01-19T08:40:51.791Z,16
2018-01-19T08:41:52.451Z,22
2018-01-19T08:42:53.114Z,22
2018-01-19T08:43:53.774Z,22
2018-01-19T08:44:54.435Z,22
2018-01-19T08:45:55.097Z,22
2018-01-19T08:46:55.757Z,22
2018-01-19T08:47:56.420Z,28
2018-01-19T08:48:57.087Z,33
2018-01-19T08:49:57.748Z,33
2018-01-19T08:50:58.407Z,39
2018-01-19T08:51:59.072Z,45
2018-01-19T08:52:59.768Z,50
2018-01-19T08:54:00.432Z,56
2018-01-19T08:55:01.094Z,56
2018-01-19T08:56:01.756Z,61
2018-01-19T08:57:02.419Z,61
2018-01-19T08:58:03.083Z,56
2018-01-19T08:59:03.747Z,50
2018-01-19T09:00:04.411Z,50
2018-01-19T09:01:05.075Z,56
2018-01-19T09:02:05.776Z,61
2018-01-19T09:03:06.401Z,67
2018-01-19T09:04:07.063Z,67
2018-01-19T09:05:07.724Z,67
2018-01-19T09:06:08.385Z,67
2018-01-19T09:07:09.083Z,67
2018-01-19T09:08:09.744Z,61
2018-01-19T09:09:10.406Z,61
2018-01-19T09:10:11.069Z,61
2018-01-19T09:11:11.733Z,67
2018-01-19T09:12:12.397Z,67
2018-01-19T09:13:13.058Z,73
2018-01-19T09:14:13.720Z,78
2018-01-19T09:15:14.382Z,84
2018-01-19T09:16:15.046Z,84
2018-01-19T09:17:15.757Z,90
2018-01-19T09:18:16.420Z,90
2018-01-19T09:19:17.083Z,90
2018-01-19T09:20:17.748Z,84
2018-01-19T09:21:18.428Z,84
2018-01-19T09:22:19.071Z,78
2018-01-19T09:23:19.733Z,84
2018-01-19T09:24:20.397Z,84
2018-01-19T09:25:21.060Z,90
2018-01-19T09:26:21.720Z,90
2018-01-19T09:27:22.381Z,84
2018-01-19T09:28:23.042Z,84
2018-01-19T09:29:23.703Z,78
2018-01-19T09:30:24.364Z,84
2018-01-19T09:31:25.062Z,78
2018-01-19T09:32:25.723Z,84
2018-01-19T09:33:26.387Z,84
2018-01-19T09:34:27.051Z,84
2018-01-19T09:35:27.714Z,90
2018-01-19T09:36:28.377Z,95
2018-01-19T09:37:29.038Z,95
2018-01-19T09:38:29.701Z,95
2018-01-19T09:39:30.363Z,95
2018-01-19T09:40:31.025Z,95
2018-01-19T09:41:31.688Z,90
2018-01-19T09:42:32.350Z,84
2018-01-19T09:43:33.012Z,84
2018-01-19T09:44:33.674Z,84
2018-01-19T09:45:34.336Z,78
2018-01-19T09:46:35.000Z,78
2018-01-19T09:47:35.666Z,78
2018-01-19T09:48:36.327Z,84
2018-01-19T09:49:36.989Z,90
2018-01-19T09:50:37.650Z,95
2018-01-19T09:51:38.314Z,101
2018-01-19T09:52:38.978Z,106
2018-01-19T09:53:39.641Z,118
2018-01-19T09:54:40.306Z,112
2018-01-19T09:55:40.968Z,106
2018-01-19T09:56:41.633Z,101
2018-01-19T09:57:42.297Z,95
2018-01-19T09:58:42.960Z,78
2018-01-19T09:59:43.623Z,78
2018-01-19T10:00:44.285Z,67
2018-01-19T10:01:44.949Z,61
2018-01-19T10:02:45.612Z,61
2018-01-19T10:03:46.275Z,61
2018-01-19T10:04:46.936Z,56
2018-01-19T10:05:47.598Z,56
2018-01-19T10:06:48.310Z,56
2018-01-19T10:07:48.925Z,61
2018-01-19T10:08:49.587Z,61
2018-01-19T10:09:50.254Z,67
2018-01-19T10:10:50.915Z,67
2018-01-19T10:11:51.578Z,67
2018-01-19T10:12:52.239Z,67
2018-01-19T10:13:52.902Z,67
2018-01-19T10:14:53.566Z,61
2018-01-19T10:15:54.229Z,61
2018-01-19T10:16:54.890Z,67
2018-01-19T10:17:55.554Z,61
2018-01-19T10:18:56.252Z,61
2018-01-19T10:19:56.915Z,67
2018-01-19T10:20:57.576Z,67
2018-01-19T10:21:58.240Z,73
2018-01-19T10:22:58.905Z,73
2018-01-19T10:23:59.567Z,78
2018-01-19T10:25:00.230Z,84
2018-01-19T10:26:00.892Z,90
2018-01-19T10:27:01.555Z,84
2018-01-19T10:28:02.303Z,84
2018-01-19T10:29:02.966Z,78
2018-01-19T10:30:03.630Z,84
2018-01-19T10:31:04.291Z,84
2018-01-19T10:32:04.953Z,90
2018-01-19T10:33:05.619Z,90
2018-01-19T10:34:06.281Z,90
2018-01-19T10:35:06.944Z,95
2018-01-19T10:36:07.604Z,84
2018-01-19T10:37:08.266Z,84
2018-01-19T10:38:08.930Z,84
2018-01-19T10:39:09.593Z,78
2018-01-19T10:40:10.258Z,78
2018-01-19T10:41:10.923Z,78
2018-01-19T10:42:11.580Z,90
2018-01-19T10:43:12.242Z,95
2018-01-19T10:44:12.904Z,90
2018-01-19T10:45:13.569Z,78
2018-01-19T10:46:14.232Z,78
2018-01-19T10:47:14.895Z,84
2018-01-19T10:48:15.557Z,90
2018-01-19T10:49:16.220Z,90
2018-01-19T10:50:16.882Z,90
2018-01-19T10:51:17.545Z,90
2018-01-19T10:52:18.209Z,84
2018-01-19T10:53:18.873Z,78
2018-01-19T10:54:19.533Z,78
2018-01-19T10:55:20.195Z,78
2018-01-19T10:56:20.857Z,73
2018-01-19T10:57:21.521Z,67
2018-01-19T10:58:22.185Z,61
2018-01-19T10:59:22.847Z,56
2018-01-19T11:00:23.509Z,61
2018-01-19T11:01:24.174Z,73
2018-01-19T11:02:24.831Z,84
2018-01-19T11:03:25.545Z,90
2018-01-19T11:04:26.206Z,95
2018-01-19T11:05:26.870Z,101
2018-01-19T11:06:27.532Z,106
2018-01-19T11:07:28.197Z,101
2018-01-19T11:08:28.861Z,95
2018-01-19T11:09:29.563Z,90
2018-01-19T11:10:30.185Z,90
2018-01-19T11:11:30.846Z,90
2018-01-19T11:12:31.509Z,84
2018-01-19T11:13:32.208Z,78
2018-01-19T11:14:32.906Z,78
2018-01-19T11:15:33.568Z,78
2018-01-19T11:16:34.230Z,84
2018-01-19T11:17:34.893Z,90
2018-01-19T11:18:35.560Z,90
2018-01-19T11:19:36.221Z,106
2018-01-19T11:20:36.884Z,118
2018-01-19T11:21:37.549Z,129
2018-01-19T11:22:38.215Z,135
2018-01-19T11:23:38.877Z,135
2018-01-19T11:24:39.540Z,135
2018-01-19T11:25:40.205Z,140
2018-01-19T11:26:40.870Z,140
2018-01-19T11:27:41.532Z,129
2018-01-19T11:28:42.195Z,123
2018-01-19T11:29:42.894Z,118
2018-01-19T11:30:43.559Z,118
2018-01-19T11:31:44.223Z,106
2018-01-19T11:32:44.888Z,106
2018-01-19T11:33:45.553Z,101
2018-01-19T11:34:46.222Z,101
2018-01-19T11:35:46.881Z,101
2018-01-19T11:36:47.546Z,101
2018-01-19T11:37:48.209Z,101
2018-01-19T11:38:48.873Z,106
2018-01-19T11:39:49.536Z,106
2018-01-19T11:40:50.202Z,106
2018-01-19T11:41:50.870Z,112
2018-01-19T11:42:51.531Z,112
2018-01-19T11:43:52.194Z,101
2018-01-19T11:44:52.862Z,101
2018-01-19T11:45:53.561Z,106
2018-01-19T11:46:54.225Z,118
2018-01-19T11:47:54.888Z,123
2018-01-19T11:48:55.554Z,118
2018-01-19T11:49:56.215Z,123
2018-01-19T11:50:56.881Z,118
2018-01-19T11:51:57.549Z,112
2018-01-19T11:52:58.288Z,101
2018-01-19T11:53:58.933Z,95
2018-01-19T11:54:59.596Z,101
2018-01-19T11:56:00.261Z,106
2018-01-19T11:57:00.927Z,112
2018-01-19T11:58:01.591Z,106
2018-01-19T11:59:02.254Z,101
2018-01-19T12:00:02.919Z,101
2018-01-19T12:01:03.582Z,90
2018-01-19T12:02:04.249Z,78
2018-01-19T12:03:04.908Z,78
2018-01-19T12:04:05.571Z,78
2018-01-19T12:05:06.233Z,78
2018-01-19T12:06:06.898Z,73
2018-01-19T12:07:07.562Z,67
2018-01-19T12:08:08.225Z,56
2018-01-19T12:09:08.888Z,56
2018-01-19T12:10:09.550Z,56
2018-01-19T12:11:10.213Z,56
2018-01-19T12:12:10.875Z,56
2018-01-19T12:13:11.540Z,56
2018-01-19T12:14:12.203Z,67
2018-01-19T12:15:12.881Z,78
2018-01-19T12:16:13.527Z,78
2018-01-19T12:17:14.226Z,95
2018-01-19T12:18:14.889Z,106
2018-01-19T12:19:15.589Z,112
2018-01-19T12:20:16.252Z,112
2018-01-19T12:21:16.917Z,112
2018-01-19T12:22:17.583Z,101
2018-01-19T12:23:18.245Z,95
2018-01-19T12:24:18.958Z,106
2018-01-19T12:25:19.623Z,106
2018-01-19T12:26:20.286Z,118
2018-01-19T12:27:20.949Z,123
2018-01-19T12:28:21.613Z,135
2018-01-19T12:29:22.279Z,135
2018-01-19T12:30:22.945Z,135
2018-01-19T12:31:23.609Z,135
2018-01-19T12:32:24.277Z,140
2018-01-19T12:33:24.938Z,146
2018-01-19T12:34:25.605Z,151
2018-01-19T12:35:26.266Z,151
2018-01-19T12:36:26.930Z,151
2018-01-19T12:37:27.597Z,140
2018-01-19T12:38:28.299Z,135
2018-01-19T12:39:28.964Z,129
2018-01-19T12:40:29.628Z,129
2018-01-19T12:41:30.327Z,129
2018-01-19T12:42:30.991Z,135
2018-01-19T12:43:31.654Z,135
2018-01-19T12:44:32.319Z,140
2018-01-19T12:45:32.985Z,135
2018-01-19T12:46:33.648Z,118
2018-01-19T12:47:34.320Z,101
2018-01-19T12:48:34.974Z,90
2018-01-19T12:49:35.639Z,78
2018-01-19T12:50:36.304Z,73
2018-01-19T12:51:37.006Z,78
2018-01-19T12:52:37.669Z,90
2018-01-19T12:53:38.333Z,106
2018-01-19T12:54:39.023Z,118
2018-01-19T12:55:39.663Z,118
2018-01-19T12:56:40.367Z,112
2018-01-19T12:57:41.030Z,112
2018-01-19T12:58:41.694Z,106
2018-01-19T12:59:42.391Z,95
2018-01-19T13:00:43.054Z,90
2018-01-19T13:01:43.715Z,84
2018-01-19T13:02:44.381Z,78
2018-01-19T13:03:45.042Z,73
2018-01-19T13:04:45.705Z,67
2018-01-19T13:05:46.372Z,61
2018-01-19T13:06:47.036Z,67
2018-01-19T13:07:47.700Z,61
2018-01-19T13:08:48.364Z,56
2018-01-19T13:09:49.037Z,56
2018-01-19T13:10:49.696Z,45
2018-01-19T13:11:50.359Z,45
2018-01-19T13:12:51.024Z,39
2018-01-19T13:13:51.721Z,33
2018-01-19T13:14:52.384Z,33
2018-01-19T13:15:53.042Z,33
2018-01-19T13:16:53.705Z,39
2018-01-19T13:17:54.371Z,33
2018-01-19T13:18:55.063Z,39
2018-01-19T13:19:55.737Z,45
2018-01-19T13:20:56.400Z,39
2018-01-19T13:21:57.077Z,45
2018-01-19T13:22:57.726Z,45
2018-01-19T13:23:58.390Z,39
2018-01-19T13:24:59.054Z,39
2018-01-19T13:25:59.716Z,39
2018-01-19T13:27:00.378Z,39
2018-01-19T13:28:01.041Z,39
2018-01-19T13:29:01.702Z,39
2018-01-19T13:30:02.365Z,45
2018-01-19T13:31:03.029Z,45
2018-01-19T13:32:03.732Z,39
2018-01-19T13:33:04.397Z,45
2018-01-19T13:34:05.062Z,45
2018-01-19T13:35:05.725Z,45
2018-01-19T13:36:06.390Z,39
2018-01-19T13:37:07.054Z,45
2018-01-19T13:38:07.753Z,39
2018-01-19T13:39:08.416Z,39
2018-01-19T13:40:09.079Z,45
2018-01-19T13:41:09.741Z,50
2018-01-19T13:42:10.439Z,56
2018-01-19T13:43:11.103Z,50
2018-01-19T13:44:11.769Z,45
2018-01-19T13:45:12.682Z,45
2018-01-19T13:46:13.344Z,50
2018-01-19T13:47:14.045Z,50
2018-01-19T13:48:14.674Z,56
2018-01-19T13:49:15.337Z,56
2018-01-19T13:50:16.000Z,56
2018-01-19T13:51:16.662Z,56
2018-01-19T13:52:17.326Z,56
2018-01-19T13:53:17.990Z,56
2018-01-19T13:54:18.652Z,61
2018-01-19T13:55:19.315Z,67
2018-01-19T13:56:19.978Z,73
2018-01-19T13:57:20.642Z,73
2018-01-19T13:58:21.304Z,67
2018-01-19T13:59:21.970Z,67
2018-01-19T14:00:22.681Z,61
2018-01-19T14:01:23.347Z,61
2018-01-19T14:02:24.046Z,61
2018-01-19T14:03:24.708Z,67
2018-01-19T14:04:25.370Z,67
2018-01-19T14:05:26.073Z,56
2018-01-19T14:06:26.695Z,50
2018-01-19T14:07:27.357Z,50
2018-01-19T14:08:28.019Z,50
2018-01-19T14:09:28.684Z,50
2018-01-19T14:10:29.348Z,61
2018-01-19T14:11:30.012Z,61
2018-01-19T14:12:30.677Z,61
2018-01-19T14:13:31.373Z,67
2018-01-19T14:14:32.036Z,73
2018-01-19T14:15:32.748Z,67
2018-01-19T14:16:33.411Z,90
2018-01-19T14:17:34.073Z,95
2018-01-19T14:18:34.736Z,90
2018-01-19T14:19:35.397Z,84
2018-01-19T14:20:36.109Z,67
2018-01-19T14:21:36.773Z,61
2018-01-19T14:22:37.436Z,61
2018-01-19T14:23:38.099Z,61
2018-01-19T14:24:38.764Z,61
2018-01-19T14:25:39.430Z,56
2018-01-19T14:26:40.090Z,50
2018-01-19T14:27:40.752Z,45
2018-01-19T14:28:41.415Z,45
2018-01-19T14:29:42.076Z,50
2018-01-19T14:30:42.789Z,50
2018-01-19T14:31:43.452Z,50
2018-01-19T14:32:44.115Z,45
2018-01-19T14:33:44.778Z,45
2018-01-19T14:34:45.475Z,50
2018-01-19T14:35:46.160Z,45
2018-01-19T14:36:46.800Z,39
2018-01-19T14:37:47.462Z,39
2018-01-19T14:38:48.126Z,39
2018-01-19T14:39:48.788Z,39